createdAt,value
2019-06-26T00:00:16.147Z,19.98
2019-06-26T00:05:14.394Z,22.45
2019-06-26T00:07:43.837Z,23.57
2019-06-26T00:10:13.797Z,21.05
2019-06-26T00:12:43.435Z,19.75
2019-06-26T00:15:13.420Z,19.60
2019-06-26T00:17:42.864Z,22.00
2019-06-26T00:20:13.220Z,20.32
2019-06-26T00:22:42.605Z,24.55
2019-06-26T00:25:12.087Z,21.33
2019-06-26T00:27:41.531Z,21.93
2019-06-26T00:30:11.791Z,21.42
2019-06-26T00:32:41.229Z,23.35
2019-06-26T00:35:10.672Z,25.70
2019-06-26T00:37:40.135Z,24.12
2019-06-26T00:40:09.809Z,22.52
2019-06-26T00:42:39.256Z,25.90
2019-06-26T00:45:08.918Z,27.42
2019-06-26T00:47:38.437Z,28.73
2019-06-26T00:50:11.634Z,28.70
2019-06-26T00:55:10.019Z,27.42
2019-06-26T00:57:39.467Z,28.35
2019-06-26T01:00:10.046Z,29.10
2019-06-26T01:02:39.631Z,30.02
2019-06-26T01:05:11.693Z,24.40
2019-06-26T01:07:41.275Z,24.87
2019-06-26T01:10:12.838Z,28.95
2019-06-26T01:12:42.285Z,28.10
2019-06-26T01:15:12.419Z,28.65
2019-06-26T01:17:41.835Z,20.95
2019-06-26T01:20:11.746Z,18.82
2019-06-26T01:22:41.093Z,21.30
2019-06-26T01:25:11.077Z,19.00
2019-06-26T01:27:40.441Z,21.17
2019-06-26T01:30:11.239Z,23.20
2019-06-26T01:32:40.666Z,30.40
2019-06-26T01:35:10.278Z,30.97
2019-06-26T01:37:39.695Z,25.35
2019-06-26T01:40:09.484Z,23.87
2019-06-26T01:42:38.893Z,27.13
2019-06-26T01:45:08.632Z,21.77
2019-06-26T01:47:37.983Z,28.10
2019-06-26T01:50:09.258Z,24.95
2019-06-26T01:52:38.680Z,22.90
2019-06-26T01:55:08.554Z,23.40
2019-06-26T01:57:37.908Z,22.15
2019-06-26T02:00:10.007Z,25.23
2019-06-26T02:02:39.491Z,24.55
2019-06-26T02:05:09.993Z,26.80
2019-06-26T02:07:39.484Z,25.97
2019-06-26T02:10:09.703Z,26.30
2019-06-26T02:12:46.117Z,34.55
2019-06-26T02:15:15.702Z,25.15
2019-06-26T02:17:45.127Z,27.98
2019-06-26T02:20:14.649Z,32.28
2019-06-26T02:22:44.064Z,31.65
2019-06-26T02:25:13.673Z,26.33
2019-06-26T02:27:43.078Z,33.78
2019-06-26T02:30:12.860Z,26.45
2019-06-26T02:32:42.208Z,34.95
2019-06-26T02:35:11.794Z,32.67
2019-06-26T02:37:41.133Z,30.82
2019-06-26T02:40:11.595Z,30.65
2019-06-26T02:42:41.101Z,32.60
2019-06-26T02:45:11.079Z,31.62
2019-06-26T02:47:40.583Z,32.50
2019-06-26T02:50:11.390Z,36.58
2019-06-26T02:52:40.793Z,29.23
2019-06-26T02:55:10.478Z,27.75
2019-06-26T02:57:39.810Z,30.40
2019-06-26T03:00:09.728Z,24.25
2019-06-26T03:02:39.080Z,34.70
2019-06-26T03:05:08.693Z,34.95
2019-06-26T03:07:38.106Z,33.40
2019-06-26T03:10:08.688Z,37.65
2019-06-26T03:12:38.035Z,39.15
2019-06-26T03:15:11.109Z,32.20
2019-06-26T03:17:54.130Z,33.35
2019-06-26T03:20:12.059Z,33.20
2019-06-26T03:22:41.803Z,25.50
2019-06-26T03:25:11.308Z,30.27
2019-06-26T03:27:40.655Z,24.65
2019-06-26T03:30:10.947Z,32.25
2019-06-26T03:32:40.321Z,27.25
2019-06-26T03:35:10.082Z,22.07
2019-06-26T03:37:39.428Z,29.63
2019-06-26T03:40:09.299Z,22.70
2019-06-26T03:42:38.668Z,20.02
2019-06-26T03:45:24.404Z,19.40
2019-06-26T03:47:40.266Z,20.35
2019-06-26T03:50:10.013Z,18.77
2019-06-26T03:52:39.395Z,19.67
2019-06-26T03:55:10.286Z,20.43
2019-06-26T03:57:39.694Z,16.37
2019-06-26T04:00:09.561Z,16.87
2019-06-26T04:02:38.943Z,19.57
2019-06-26T04:05:08.801Z,22.95
2019-06-26T04:07:38.238Z,25.27
2019-06-26T04:10:08.494Z,19.57
2019-06-26T04:12:37.861Z,21.75
2019-06-26T04:15:08.116Z,22.65
2019-06-26T04:17:37.556Z,18.75
2019-06-26T04:20:08.605Z,19.10
2019-06-26T04:22:37.983Z,21.07
2019-06-26T04:25:08.777Z,21.00
2019-06-26T04:27:38.207Z,24.50
2019-06-26T04:30:10.202Z,13.93
2019-06-26T04:32:39.783Z,19.50
2019-06-26T04:35:09.625Z,20.55
2019-06-26T04:37:39.060Z,13.83
2019-06-26T04:40:09.423Z,12.07
2019-06-26T04:42:38.791Z,14.23
2019-06-26T04:45:08.947Z,15.45
2019-06-26T04:47:38.324Z,15.75
2019-06-26T04:50:08.985Z,13.78
2019-06-26T04:52:38.422Z,15.85
2019-06-26T04:55:08.802Z,15.78
2019-06-26T04:57:38.343Z,14.68
2019-06-26T05:00:08.901Z,17.87
2019-06-26T05:02:38.300Z,16.07
2019-06-26T05:05:08.245Z,14.58
2019-06-26T05:07:37.607Z,16.55
2019-06-26T05:10:08.864Z,13.88
2019-06-26T05:12:38.508Z,21.60
2019-06-26T05:15:12.227Z,15.53
2019-06-26T05:17:41.664Z,15.40
2019-06-26T05:20:11.552Z,16.87
2019-06-26T05:22:40.985Z,16.65
2019-06-26T05:25:10.701Z,11.57
2019-06-26T05:27:40.371Z,16.32
2019-06-26T05:30:12.106Z,13.40
2019-06-26T05:32:41.642Z,17.92
2019-06-26T05:35:11.506Z,18.90
2019-06-26T05:37:40.977Z,16.70
2019-06-26T05:40:14.523Z,18.17
2019-06-26T05:42:43.981Z,19.45
2019-06-26T05:45:14.360Z,18.73
2019-06-26T05:47:43.798Z,19.35
2019-06-26T05:50:16.284Z,17.23
2019-06-26T05:52:45.757Z,18.40
2019-06-26T05:55:15.549Z,21.12
2019-06-26T05:57:48.354Z,17.00
2019-06-26T06:00:16.858Z,16.42
2019-06-26T06:02:46.437Z,18.60
2019-06-26T06:05:17.391Z,14.47
2019-06-26T06:07:46.832Z,13.32
2019-06-26T06:10:16.922Z,14.30
2019-06-26T06:12:46.275Z,14.45
2019-06-26T06:15:16.182Z,14.07
2019-06-26T06:17:45.562Z,19.67
2019-06-26T06:20:17.340Z,14.25
2019-06-26T06:22:46.707Z,15.32
2019-06-26T06:25:16.186Z,24.85
2019-06-26T06:27:45.559Z,13.05
2019-06-26T06:30:15.230Z,15.68
2019-06-26T06:32:44.633Z,14.07
2019-06-26T06:35:14.198Z,14.35
2019-06-26T06:37:43.557Z,13.08
2019-06-26T06:40:13.073Z,13.62
2019-06-26T06:42:42.749Z,11.85
2019-06-26T06:45:19.651Z,13.53
2019-06-26T06:47:49.066Z,16.52
2019-06-26T06:50:18.574Z,19.12
2019-06-26T06:52:47.992Z,13.03
2019-06-26T06:55:17.729Z,15.58
2019-06-26T06:57:47.169Z,12.25
2019-06-26T07:00:17.382Z,11.38
2019-06-26T07:02:46.727Z,10.78
2019-06-26T07:05:16.230Z,11.18
2019-06-26T07:07:45.590Z,11.15
2019-06-26T07:10:15.055Z,13.88
2019-06-26T07:12:44.494Z,11.00
2019-06-26T07:15:15.904Z,10.20
2019-06-26T07:17:45.400Z,10.03
2019-06-26T07:20:15.398Z,11.75
2019-06-26T07:22:44.795Z,10.98
2019-06-26T07:25:15.392Z,14.30
2019-06-26T07:27:44.867Z,11.15
2019-06-26T07:30:14.843Z,14.07
2019-06-26T07:32:44.332Z,9.90
2019-06-26T07:35:13.959Z,15.25
2019-06-26T07:37:43.333Z,12.03
2019-06-26T07:40:13.305Z,12.45
2019-06-26T07:42:42.677Z,10.38
2019-06-26T07:45:12.415Z,15.23
2019-06-26T07:47:44.211Z,13.60
2019-06-26T07:50:15.009Z,11.43
2019-06-26T07:52:44.381Z,10.95
2019-06-26T07:55:13.868Z,12.28
2019-06-26T07:57:43.275Z,11.25
2019-06-26T08:00:13.459Z,14.05
2019-06-26T08:02:42.860Z,13.38
2019-06-26T08:05:14.012Z,11.75
2019-06-26T08:07:43.396Z,11.15
2019-06-26T08:10:14.457Z,12.07
2019-06-26T08:12:43.842Z,12.13
2019-06-26T08:15:13.754Z,12.35
2019-06-26T08:17:59.237Z,16.02
2019-06-26T08:20:16.060Z,11.20
2019-06-26T08:22:45.498Z,15.85
2019-06-26T08:25:15.697Z,13.08
2019-06-26T08:27:45.256Z,16.80
2019-06-26T08:30:14.735Z,11.88
2019-06-26T08:32:44.122Z,15.35
2019-06-26T08:35:13.822Z,10.90
2019-06-26T08:37:43.177Z,10.28
2019-06-26T08:40:14.397Z,11.35
2019-06-26T08:42:43.874Z,9.43
2019-06-26T08:45:13.647Z,10.03
2019-06-26T08:47:43.098Z,13.20
2019-06-26T08:50:14.274Z,9.35
2019-06-26T08:52:43.667Z,10.35
2019-06-26T08:55:13.349Z,13.15
2019-06-26T08:57:42.717Z,11.20
2019-06-26T09:00:12.993Z,11.90
2019-06-26T09:02:42.495Z,12.35
2019-06-26T09:05:12.582Z,10.10
2019-06-26T09:07:41.983Z,10.78
2019-06-26T09:10:11.972Z,10.15
2019-06-26T09:12:41.312Z,10.23
2019-06-26T09:15:11.153Z,10.55
2019-06-26T09:17:40.564Z,8.30
2019-06-26T09:20:10.216Z,15.08
2019-06-26T09:22:39.582Z,8.58
2019-06-26T09:25:21.479Z,9.33
2019-06-26T09:27:40.542Z,8.50
2019-06-26T09:30:10.857Z,11.75
2019-06-26T09:32:40.251Z,12.80
2019-06-26T09:35:10.067Z,8.93
2019-06-26T09:37:39.465Z,7.60
2019-06-26T09:40:09.312Z,6.55
2019-06-26T09:42:38.840Z,5.55
2019-06-26T09:45:08.546Z,6.97
2019-06-26T09:47:37.936Z,8.98
2019-06-26T09:50:07.969Z,5.92
2019-06-26T09:52:37.315Z,6.47
2019-06-26T09:55:07.501Z,7.58
2019-06-26T09:57:36.894Z,7.08
2019-06-26T10:00:15.616Z,5.95
2019-06-26T10:02:45.117Z,6.70
2019-06-26T10:05:14.998Z,9.20
2019-06-26T10:07:44.406Z,6.75
2019-06-26T10:10:14.322Z,5.42
2019-06-26T10:12:43.777Z,8.55
2019-06-26T10:15:13.479Z,8.33
2019-06-26T10:17:42.948Z,5.95
2019-06-26T10:20:12.752Z,7.00
2019-06-26T10:22:42.692Z,8.48
2019-06-26T10:25:13.692Z,6.47
2019-06-26T10:27:43.401Z,9.28
2019-06-26T10:30:12.975Z,6.15
2019-06-26T10:32:42.322Z,5.67
2019-06-26T10:35:12.287Z,6.25
2019-06-26T10:37:41.709Z,9.08
2019-06-26T10:40:11.568Z,5.80
2019-06-26T10:42:41.088Z,8.80
2019-06-26T10:45:10.911Z,6.33
2019-06-26T10:47:40.388Z,8.58
2019-06-26T10:50:10.173Z,8.80
2019-06-26T10:52:39.669Z,6.35
2019-06-26T10:55:09.731Z,5.78
2019-06-26T10:57:39.167Z,6.35
2019-06-26T11:00:10.833Z,11.12
2019-06-26T11:02:40.326Z,6.03
2019-06-26T11:05:10.473Z,6.95
2019-06-26T11:07:39.899Z,6.30
2019-06-26T11:10:09.898Z,7.78
2019-06-26T11:12:39.926Z,6.00
2019-06-26T11:15:10.105Z,11.83
2019-06-26T11:17:39.844Z,8.10
2019-06-26T11:20:09.892Z,5.33
2019-06-26T11:22:39.422Z,8.28
2019-06-26T11:25:10.629Z,6.17
2019-06-26T11:27:40.006Z,7.90
2019-06-26T11:30:12.796Z,8.73
2019-06-26T11:32:42.253Z,13.18
2019-06-26T11:35:12.958Z,10.25
2019-06-26T11:37:42.295Z,8.18
2019-06-26T11:40:11.962Z,9.33
2019-06-26T11:42:41.400Z,10.78
2019-06-26T11:45:12.609Z,6.97
2019-06-26T11:47:45.541Z,11.88
2019-06-26T11:50:13.871Z,6.00
2019-06-26T11:52:43.208Z,6.40
2019-06-26T11:55:15.883Z,9.73
2019-06-26T11:57:45.527Z,8.35
2019-06-26T12:00:18.161Z,18.27
2019-06-26T12:02:47.507Z,12.28
2019-06-26T12:05:17.239Z,9.98
2019-06-26T12:07:46.653Z,14.05
2019-06-26T12:10:17.061Z,13.08
2019-06-26T12:12:46.527Z,12.82
2019-06-26T12:15:17.210Z,14.35
2019-06-26T12:17:46.627Z,14.80
2019-06-26T12:20:19.834Z,11.00
2019-06-26T12:22:48.716Z,13.48
2019-06-26T12:25:18.238Z,16.57
2019-06-26T12:27:47.719Z,9.63
2019-06-26T12:30:17.622Z,7.70
2019-06-26T12:33:02.261Z,12.68
2019-06-26T12:35:18.573Z,13.00
2019-06-26T12:37:47.939Z,14.00
2019-06-26T12:40:18.693Z,14.60
2019-06-26T12:42:48.127Z,13.60
2019-06-26T12:45:17.903Z,20.48
2019-06-26T12:47:47.292Z,12.78
2019-06-26T12:50:34.115Z,17.52
2019-06-26T12:52:51.196Z,11.22
2019-06-26T12:55:20.834Z,14.98
2019-06-26T12:57:50.280Z,10.10
2019-06-26T13:00:21.388Z,9.35
2019-06-26T13:02:50.854Z,12.33
2019-06-26T13:05:20.334Z,18.07
2019-06-26T13:07:49.792Z,12.65
2019-06-26T13:10:19.869Z,13.40
2019-06-26T13:12:49.270Z,13.80
2019-06-26T13:15:19.005Z,16.87
2019-06-26T13:17:48.422Z,13.08
2019-06-26T13:20:18.224Z,9.38
2019-06-26T13:22:47.625Z,19.25
2019-06-26T13:25:17.847Z,15.43
2019-06-26T13:27:47.279Z,15.68
2019-06-26T13:30:24.160Z,15.45
2019-06-26T13:32:53.671Z,12.70
2019-06-26T13:35:24.311Z,14.90
2019-06-26T13:37:53.771Z,17.57
2019-06-26T13:40:23.125Z,18.52
2019-06-26T13:42:52.498Z,18.05
2019-06-26T13:45:21.968Z,11.57
2019-06-26T13:47:51.401Z,20.75
2019-06-26T13:50:21.380Z,16.60
2019-06-26T13:52:50.894Z,13.85
2019-06-26T13:55:20.384Z,17.65
2019-06-26T13:57:49.770Z,19.07
2019-06-26T14:00:21.233Z,12.35
2019-06-26T14:02:50.617Z,14.93
2019-06-26T14:05:20.233Z,16.23
2019-06-26T14:07:49.668Z,13.28
2019-06-26T14:10:19.218Z,16.45
2019-06-26T14:12:48.660Z,16.82
2019-06-26T14:15:18.457Z,12.82
2019-06-26T14:17:47.835Z,18.17
2019-06-26T14:20:19.115Z,16.62
2019-06-26T14:22:48.569Z,22.85
2019-06-26T14:25:19.056Z,14.15
2019-06-26T14:27:48.496Z,21.57
2019-06-26T14:30:19.877Z,13.38
2019-06-26T14:32:49.377Z,14.37
2019-06-26T14:35:18.924Z,14.23
2019-06-26T14:37:48.273Z,13.68
2019-06-26T14:40:19.302Z,14.50
2019-06-26T14:42:48.775Z,14.43
2019-06-26T14:45:18.295Z,15.70
2019-06-26T14:47:47.635Z,19.45
2019-06-26T14:50:17.546Z,20.05
2019-06-26T14:52:46.955Z,20.45
2019-06-26T14:55:16.499Z,16.73
2019-06-26T14:57:45.913Z,14.83
2019-06-26T15:00:17.088Z,11.80
2019-06-26T15:02:46.443Z,18.57
2019-06-26T15:05:16.224Z,15.93
2019-06-26T15:07:45.565Z,16.70
2019-06-26T15:10:15.581Z,21.57
2019-06-26T15:12:44.927Z,12.15
2019-06-26T15:15:15.497Z,13.32
2019-06-26T15:17:44.919Z,19.70
2019-06-26T15:20:16.392Z,16.30
2019-06-26T15:22:45.806Z,13.83
2019-06-26T15:25:16.889Z,15.00
2019-06-26T15:27:46.302Z,13.13
2019-06-26T15:30:17.579Z,20.25
2019-06-26T15:32:47.062Z,16.82
2019-06-26T15:35:16.738Z,12.63
2019-06-26T15:37:46.122Z,13.85
2019-06-26T15:40:16.187Z,11.90
2019-06-26T15:42:48.882Z,13.18
2019-06-26T15:45:20.415Z,16.07
2019-06-26T15:47:47.910Z,21.93
2019-06-26T15:50:17.353Z,11.80
2019-06-26T15:52:46.689Z,16.82
2019-06-26T15:55:16.140Z,17.40
2019-06-26T15:57:45.522Z,15.90
2019-06-26T16:00:15.279Z,14.35
2019-06-26T16:02:44.714Z,13.83
2019-06-26T16:05:15.802Z,20.00
2019-06-26T16:07:45.220Z,13.70
2019-06-26T16:10:14.792Z,18.00
2019-06-26T16:12:44.217Z,15.50
2019-06-26T16:15:13.924Z,22.50
2019-06-26T16:17:56.958Z,9.90
2019-06-26T16:20:26.352Z,11.85
2019-06-26T16:22:55.872Z,15.63
2019-06-26T16:25:25.314Z,17.45
2019-06-26T16:28:04.603Z,17.42
2019-06-26T16:30:26.779Z,13.85
2019-06-26T16:32:57.058Z,14.70
2019-06-26T16:35:26.566Z,12.80
2019-06-26T16:37:55.948Z,16.57
2019-06-26T16:40:25.317Z,11.70
2019-06-26T16:42:54.727Z,22.45
2019-06-26T16:45:24.172Z,19.00
2019-06-26T16:47:53.578Z,16.62
2019-06-26T16:50:23.005Z,20.37
2019-06-26T16:52:52.372Z,13.80
2019-06-26T16:55:21.889Z,15.15
2019-06-26T16:57:51.508Z,13.08
2019-06-26T17:00:21.028Z,14.38
2019-06-26T17:02:50.439Z,15.90
2019-06-26T17:05:19.903Z,14.63
2019-06-26T17:07:49.308Z,13.95
2019-06-26T17:10:19.290Z,14.80
2019-06-26T17:12:48.638Z,14.13
2019-06-26T17:15:18.350Z,14.07
2019-06-26T17:17:48.165Z,15.10
2019-06-26T17:20:18.446Z,12.30
2019-06-26T17:23:01.097Z,14.58
2019-06-26T17:25:19.325Z,13.32
2019-06-26T17:27:48.737Z,16.02
2019-06-26T17:30:18.319Z,13.10
2019-06-26T17:32:48.136Z,12.43
2019-06-26T17:35:17.962Z,12.95
2019-06-26T17:37:47.300Z,12.20
2019-06-26T17:40:17.086Z,9.63
2019-06-26T17:42:46.522Z,15.95
2019-06-26T17:45:16.097Z,8.48
2019-06-26T17:47:45.541Z,9.53
2019-06-26T17:50:16.298Z,17.60
2019-06-26T17:52:45.809Z,13.68
2019-06-26T17:55:15.701Z,13.18
2019-06-26T17:57:47.517Z,15.15
2019-06-26T18:00:16.703Z,15.35
2019-06-26T18:02:46.074Z,16.25
2019-06-26T18:05:15.625Z,13.93
2019-06-26T18:07:45.068Z,17.07
2019-06-26T18:10:14.545Z,15.90
2019-06-26T18:12:44.060Z,10.82
2019-06-26T18:15:13.902Z,14.87
2019-06-26T18:17:43.341Z,17.98
2019-06-26T18:20:13.221Z,16.02
2019-06-26T18:22:42.605Z,15.15
2019-06-26T18:25:12.069Z,16.82
2019-06-26T18:27:41.434Z,15.48
2019-06-26T18:30:13.217Z,10.85
2019-06-26T18:32:42.629Z,18.95
2019-06-26T18:35:12.125Z,18.57
2019-06-26T18:37:41.489Z,20.72
2019-06-26T18:40:11.061Z,17.62
2019-06-26T18:42:40.505Z,12.93
2019-06-26T18:45:09.919Z,15.60
2019-06-26T18:47:39.290Z,14.28
2019-06-26T18:50:09.139Z,14.47
2019-06-26T18:52:38.594Z,12.10
2019-06-26T18:55:08.163Z,12.03
2019-06-26T18:57:37.609Z,19.23
2019-06-26T19:00:08.090Z,15.70
2019-06-26T19:02:37.545Z,16.25
2019-06-26T19:05:09.064Z,15.18
2019-06-26T19:07:38.431Z,17.55
2019-06-26T19:10:10.086Z,21.45
2019-06-26T19:12:39.458Z,13.13
2019-06-26T19:15:09.145Z,19.15
2019-06-26T19:17:42.282Z,17.67
2019-06-26T19:20:10.841Z,15.95
2019-06-26T19:22:40.216Z,14.53
2019-06-26T19:25:10.762Z,16.35
2019-06-26T19:27:40.221Z,17.48
2019-06-26T19:30:10.665Z,11.85
2019-06-26T19:32:40.469Z,17.95
2019-06-26T19:35:18.854Z,12.40
2019-06-26T19:37:41.709Z,25.62
2019-06-26T19:40:12.090Z,18.40
2019-06-26T19:42:41.555Z,15.80
2019-06-26T19:45:13.799Z,13.03
2019-06-26T19:47:43.342Z,16.90
2019-06-26T19:50:12.942Z,17.15
2019-06-26T19:52:42.433Z,21.65
2019-06-26T19:55:11.994Z,17.45
2019-06-26T19:57:41.617Z,16.07
2019-06-26T20:00:14.533Z,13.45
2019-06-26T20:05:12.968Z,14.03
2019-06-26T20:07:42.760Z,15.88
2019-06-26T20:10:12.712Z,20.72
2019-06-26T20:12:42.268Z,17.27
2019-06-26T20:15:11.869Z,15.55
2019-06-26T20:17:41.249Z,18.87
2019-06-26T20:20:11.325Z,19.90
2019-06-26T20:22:40.764Z,18.62
2019-06-26T20:25:10.805Z,14.25
2019-06-26T20:27:40.321Z,18.42
2019-06-26T20:30:10.409Z,15.10
2019-06-26T20:32:39.883Z,14.90
2019-06-26T20:35:09.352Z,20.48
2019-06-26T20:37:38.788Z,19.37
2019-06-26T20:40:09.045Z,13.75
2019-06-26T20:42:38.458Z,17.17
2019-06-26T20:45:10.021Z,15.30
2019-06-26T20:47:39.382Z,18.42
2019-06-26T20:50:09.072Z,18.23
2019-06-26T20:52:38.478Z,15.43
2019-06-26T20:55:08.434Z,14.23
2019-06-26T20:57:37.758Z,20.55
2019-06-26T21:00:08.874Z,10.50
2019-06-26T21:02:38.387Z,15.00
2019-06-26T21:05:10.851Z,18.57
2019-06-26T21:07:40.265Z,14.58
2019-06-26T21:10:09.978Z,13.10
2019-06-26T21:12:39.393Z,14.07
2019-06-26T21:15:09.571Z,15.65
2019-06-26T21:17:40.586Z,22.62
2019-06-26T21:20:10.266Z,16.62
2019-06-26T21:22:39.747Z,15.45
2019-06-26T21:25:18.531Z,16.25
2019-06-26T21:27:40.436Z,15.32
2019-06-26T21:30:10.287Z,21.35
2019-06-26T21:32:39.625Z,19.65
2019-06-26T21:35:09.136Z,19.35
2019-06-26T21:37:38.496Z,14.10
2019-06-26T21:40:08.731Z,16.40
2019-06-26T21:42:38.289Z,16.20
2019-06-26T21:45:08.102Z,18.45
2019-06-26T21:47:37.445Z,20.02
2019-06-26T21:50:09.635Z,15.45
2019-06-26T21:52:40.668Z,15.70
2019-06-26T21:55:10.094Z,15.98
2019-06-26T21:57:39.810Z,17.80
2019-06-26T22:00:10.816Z,20.35
2019-06-26T22:02:40.165Z,16.35
2019-06-26T22:05:09.739Z,16.62
2019-06-26T22:07:39.284Z,15.35
2019-06-26T22:10:10.987Z,20.30
2019-06-26T22:12:40.344Z,20.05
2019-06-26T22:15:10.386Z,20.68
2019-06-26T22:17:39.801Z,21.95
2019-06-26T22:20:12.796Z,21.15
2019-06-26T22:22:41.222Z,16.73
2019-06-26T22:25:10.729Z,15.68
2019-06-26T22:27:40.073Z,17.87
2019-06-26T22:30:10.396Z,22.42
2019-06-26T22:32:39.814Z,34.58
2019-06-26T22:35:09.591Z,14.43
2019-06-26T22:37:39.099Z,16.77
2019-06-26T22:40:08.956Z,18.40
2019-06-26T22:42:38.401Z,20.23
2019-06-26T22:45:08.291Z,15.50
2019-06-26T22:47:37.658Z,22.22
2019-06-26T22:50:08.820Z,18.48
2019-06-26T22:52:38.438Z,15.13
2019-06-26T22:55:08.331Z,19.05
2019-06-26T22:57:37.711Z,17.82
2019-06-26T23:00:11.618Z,16.87
2019-06-26T23:02:40.994Z,28.30
2019-06-26T23:05:10.586Z,25.85
2019-06-26T23:07:40.052Z,15.35
2019-06-26T23:10:10.183Z,16.42
2019-06-26T23:12:39.632Z,24.18
2019-06-26T23:15:09.923Z,25.15
2019-06-26T23:17:39.365Z,19.60
2019-06-26T23:20:09.459Z,21.65
2019-06-26T23:22:38.841Z,20.05
2019-06-26T23:25:08.843Z,21.52
2019-06-26T23:27:38.278Z,13.50
2019-06-26T23:30:18.843Z,17.65
2019-06-26T23:32:48.290Z,17.87
2019-06-26T23:35:17.782Z,19.10
2019-06-26T23:37:47.159Z,17.48
2019-06-26T23:40:17.220Z,18.30
2019-06-26T23:42:46.584Z,21.30
2019-06-26T23:45:16.375Z,21.62
2019-06-26T23:47:45.822Z,27.40
2019-06-26T23:50:15.477Z,19.85
2019-06-26T23:52:44.921Z,19.23
2019-06-26T23:55:14.783Z,22.80
2019-06-26T23:57:58.007Z,21.73
